Terminal Aerodrome Forecast
Issued by NWS

Home | Current Version | Previous Version | Text Only | Print | Product List | Glossary Off
Versions: 1 2 3 4 5 6 7 8 9 10 11 12 13 14 15 16 17 18 19 20

000
FTUS43 KICT 221735
TAFHUT
TAF
KHUT 221735Z 2218/2318 08013G19KT P6SM FEW130
     FM230000 09008KT P6SM SCT100
     FM230900 10007KT P6SM SCT035 BKN100
     FM231200 11011KT P6SM OVC030=

USA.gov is the U.S. government's official web portal to all federal, state and local government web resources and services.